KGYR/GYR METAR and TAF weather

Enter ICAO airport designator
Station Type Date Time Source
KGYR METAR 2020/07/08 00:47 UTC NOAA

KGYR 080047Z 26007KT 10SM FEW120 43/12 A2969


Station Type Date Time Source
KGYR Decoded METAR 2020/07/08 00:47 UTC NOAA

Goodyear Municipal, AZ, United States (KGYR) 33-25N 112-23W
Jul 07, 2020 - 08:47 PM EDT / 2020.07.08 0047 UTC
Wind: from the W (260 degrees) at 8 MPH (7 KT):0
Visibility: 10 mile(s):0
Sky conditions: mostly clear
Temperature: 109 F (43 C)
Heat index: 107.4 F (41.9 C):1
Dew Point: 53 F (12 C)
Relative Humidity: 16%
Pressure (altimeter): 29.69 in. Hg (1005 hPa)
ob: KGYR 080047Z 26007KT 10SM FEW120 43/12 A2969
cycle: 1

Station Type Date Time Source
KGYR TAF UTC NOAA

Error!

Example: see airport list